Terminal Aerodrome Forecast
Issued by NWS

Home | Current Version | Previous Version | Text Only | Print | Product List | Glossary On
Versions: 1 2 3 4 5 6 7 8 9 10 11 12 13 14
000
FTUS45 KRIW 031122
TAFCOD
TAF
KCOD 031122Z 0312/0412 VRB05KT P6SM SCT110
     FM032000 11008KT P6SM VCTS SCT060CB BKN120
     FM040100 04007KT P6SM BKN100
     FM040600 22007KT P6SM FEW120
      AMD LTD TO CLD VIS AND WIND=

USA.gov is the U.S. government's official web portal to all federal, state and local government web resources and services.